• Join FlightAware (Why Join?)
  • Login
  • US Flag 
11:07PM EDT


 

Airport Tracker/Info


-or-


 

Live Flight TrackerFlight Track Log ✈ N509QS ✈ 17-May-2013 ✈ KILM - KTEB

Flight Track Log - Related Links

Times and Time Zones

All times are in EDT time to prevent confusion due to time zone crossing. See the N509QS flight status page for this flight to view local times or setup timezone preferences in your user account.

Time Position Orientation Groundspeed Altitude Reporting Facility
EDT Latitude Longitude Course Direction KTS MPH feet Rate Location/Type
01:46PM 34.3944 -77.9628 338° Northwest 304 350 9,900  Level Washington Center
01:47PM 34.4853 -77.9175 22° Northeast 323 372 13,100 3,660 Climbing Washington Center
01:48PM 34.5819 -77.8800 18° North 347 399 17,100 3,720 Climbing Washington Center
01:49PM 34.6906 -77.8728 North 364 419 20,600 3,240 Climbing Washington Center
01:50PM 34.8053 -77.8711 North 388 447 23,700 2,820 Climbing Washington Center
01:51PM 34.9075 -77.8664 North 400 460 26,300 2,580 Climbing Washington Center
01:52PM 35.0308 -77.8622 North 423 487 28,900 2,340 Climbing Washington Center
01:53PM 35.1581 -77.8633 360° North 436 502 31,100 1,920 Climbing Washington Center
01:54PM 35.2917 -77.8619 360° North 454 522 32,900 960 Climbing Washington Center
01:55PM 35.4253 -77.8581 North 473 544 33,000  Climbing Washington Center
01:56PM 35.5714 -77.8569 360° North 480 552 33,000  Level Washington Center
01:57PM 35.7028 -77.8556 360° North 474 545 33,000  Level Washington Center
01:58PM 35.8342 -77.8544 360° North 474 545 33,000  Level Washington Center
01:59PM 35.9700 -77.8506 North 474 545 33,000  Level Washington Center
02:00PM 36.0994 -77.8489 North 474 545 33,000  Level Washington Center
02:01PM 36.2328 -77.8503 360° North 474 545 33,100 720 Climbing Washington Center
02:02PM 36.3622 -77.8436 North 474 545 34,500 960 Climbing Washington Center
02:03PM 36.4917 -77.8450 360° North 474 545 35,000 240 Climbing Washington Center
02:04PM 36.6253 -77.8436 360° North 474 545 35,000  Level Washington Center
02:05PM 36.7506 -77.8289 North 468 539 35,000  Level Washington Center
02:06PM 36.8728 -77.7728 20° North 456 525 35,000  Level Washington Center
02:07PM 36.9928 -77.7061 24° Northeast 462 532 35,000  Level Washington Center
02:08PM 37.1150 -77.6442 22° Northeast 467 537 35,000  Level Washington Center
02:09PM 37.2328 -77.5744 25° Northeast 462 532 35,000  Level Washington Center
02:10PM 37.3508 -77.5094 24° Northeast 469 540 35,000  Level Washington Center
02:11PM 37.4622 -77.4469 24° Northeast 464 534 35,000  Level Washington Center
02:12PM 37.5989 -77.3742 23° Northeast 472 543 35,000  Level Washington Center
02:13PM 37.7167 -77.3033 25° Northeast 478 550 35,000 -240 Level Washington Center
02:14PM 37.8242 -77.2403 25° Northeast 468 539 34,600 -1,020 Descending Washington Center
02:15PM 37.9564 -77.1642 24° Northeast 460 529 33,000 -1,500 Descending Washington Center
02:16PM 38.0658 -77.1031 24° Northeast 472 543 31,700 -1,020 Descending Washington Center
02:17PM 38.2022 -77.0211 25° Northeast 479 551 31,000 -360 Descending Washington Center
02:18PM 38.3156 -76.9678 20° North 486 559 31,000  Level Washington Center
02:19PM 38.4372 -76.8986 24° Northeast 478 550 31,000 -300 Level Washington Center
02:20PM 38.5608 -76.8289 24° Northeast 478 550 30,400 -1,080 Descending Washington Center
02:21PM 38.6867 -76.7539 25° Northeast 483 556 28,900 -1,560 Descending Washington Center
02:22PM 38.7919 -76.6492 38° Northeast 478 550 27,400 -1,260 Descending Washington Center
02:23PM 38.8931 -76.5331 42° Northeast 478 550 26,400 -960 Descending Washington Center
02:24PM 38.9897 -76.4169 43° Northeast 478 550 25,500 -900 Descending Washington Center
02:25PM 39.0864 -76.3031 42° Northeast 468 539 24,600 -780 Descending Washington Center
02:26PM 39.1808 -76.1914 42° Northeast 463 533 24,000 -1,740 Descending Washington Center
02:27PM 39.2917 -76.0717 40° Northeast 471 542 21,200 -2,340 Descending Washington Center
02:28PM 39.3942 -75.9783 35° Northeast 458 527 19,300 -1,860 Descending Washington Center
02:29PM 39.4883 -75.8872 37° Northeast 437 503 17,500 -1,860 Descending Washington Center
02:30PM 39.5800 -75.8017 36° Northeast 423 487 15,700 -1,380 Descending Washington Center
02:32PM 39.7833 -75.6167 35° Northeast 375 432 13,100 -900 Descending Philadelphia TRACON
02:33PM 39.8500 -75.5500 38° Northeast 363 418 13,000  Descending Philadelphia TRACON
02:34PM 39.9333 -75.4667 37° Northeast 304 350 13,100  Climbing Philadelphia TRACON
02:35PM 40.0000 -75.4000 37° Northeast 306 352 13,100  Level Philadelphia TRACON
02:36PM 40.0833 -75.3333 31° Northeast 306 352 13,100  Level Philadelphia TRACON
02:37PM 40.1500 -75.2667 37° Northeast 309 356 13,100 -660 Level Philadelphia TRACON
02:38PM 40.2167 -75.2167 30° Northeast 305 351 11,800 -1,500 Descending Philadelphia TRACON
02:39PM 40.2833 -75.1500 37° Northeast 300 345 10,200 -1,620 Descending Philadelphia TRACON
02:41PM 40.3833 -75.0333 42° Northeast 288 331 7,500 -1,440 Descending New York TRACON
02:42PM 40.4333 -74.9667 45° Northeast 276 318 6,600 -1,440 Descending New York TRACON
02:43PM 40.4833 -74.8833 52° Northeast 268 308 4,800 -1,680 Descending New York TRACON
02:44PM 40.5167 -74.8000 62° Northeast 267 307 3,100 -900 Descending New York TRACON
02:45PM 40.5500 -74.7167 62° Northeast 262 302 3,100 -60 Level New York TRACON
02:46PM 40.5667 -74.6333 75° East 260 299 3,000  Descending New York TRACON
02:47PM 40.5833 -74.5333 78° East 254 292 3,100 -180 Climbing New York TRACON
02:48PM 40.6000 -74.4500 75° East 232 267 2,700 -540 Descending New York TRACON
02:49PM 40.6333 -74.3833 57° Northeast 207 238 2,000 -540 Descending New York TRACON
02:50PM 40.6667 -74.3167 57° Northeast 215 247 1,600 -240 Descending New York TRACON
02:51PM 40.7167 -74.2667 37° Northeast 205 236 1,600  Level New York TRACON
02:52PM 40.7500 -74.2167 49° Northeast 184 212 1,600  Level New York TRACON
02:53PM 40.7833 -74.1667 49° Northeast 167 192 1,600 -180 Level New York TRACON
02:54PM 40.8000 -74.1333 57° Northeast 147 169 1,300 -540 Descending New York TRACON
02:55PM 40.8333 -74.1000 37° Northeast 121 139 600 -720 Descending New York TRACON
02:57PM 40.8501 -74.0608 62° Northeast  Level Estimated
03:04PM 40.8501 -74.0608 62° Northeast  Level Estimated